createdAt,value
2022-11-05T00:02:07.301Z,75.85
2022-11-05T00:07:39.628Z,75.73
2022-11-05T00:13:01.128Z,75.76
2022-11-05T00:18:04.017Z,75.72
2022-11-05T00:23:25.502Z,75.96
2022-11-05T00:28:29.011Z,75.68
2022-11-05T00:33:32.371Z,75.59
2022-11-05T00:38:35.379Z,75.41
2022-11-05T00:43:56.944Z,75.24
2022-11-05T00:49:18.651Z,75.71
2022-11-05T00:54:21.628Z,75.58
2022-11-05T00:59:24.442Z,75.45
2022-11-05T01:04:27.269Z,75.28
2022-11-05T01:09:30.125Z,75.03
2022-11-05T01:14:32.992Z,75.44
2022-11-05T01:19:36.138Z,75.31
2022-11-05T01:24:39.035Z,75.34
2022-11-05T01:29:42.422Z,75.38
2022-11-05T01:34:45.274Z,75.66
2022-11-05T01:39:48.161Z,75.24
2022-11-05T01:45:10.625Z,75.80
2022-11-05T01:50:30.889Z,75.96
2022-11-05T01:55:36.977Z,75.93
2022-11-05T02:00:41.315Z,76.25
2022-11-05T02:05:44.208Z,76.06
2022-11-05T02:10:47.144Z,76.74
2022-11-05T02:16:03.494Z,77.00
2022-11-05T02:21:25.193Z,76.80
2022-11-05T02:27:03.628Z,77.06
2022-11-05T02:32:18.723Z,77.25
2022-11-05T02:37:33.525Z,77.33
2022-11-05T02:42:56.802Z,77.01
2022-11-05T02:48:36.851Z,77.28
2022-11-05T02:53:59.553Z,77.85
2022-11-05T02:59:02.374Z,78.10
2022-11-05T03:04:08.159Z,78.16
2022-11-05T03:09:45.104Z,77.93
2022-11-05T03:15:40.590Z,78.40
2022-11-05T03:21:11.542Z,78.91
2022-11-05T03:26:21.460Z,78.45
2022-11-05T03:31:24.459Z,78.51
2022-11-05T03:36:39.669Z,78.78
2022-11-05T03:41:45.684Z,79.00
2022-11-05T03:46:49.491Z,78.82
2022-11-05T03:52:09.810Z,78.89
2022-11-05T03:57:33.781Z,79.24
2022-11-05T04:02:37.302Z,79.53
2022-11-05T04:07:58.993Z,79.39
2022-11-05T04:13:20.571Z,79.65
2022-11-05T04:18:23.410Z,80.03
2022-11-05T04:23:45.022Z,79.94
2022-11-05T04:29:07.942Z,80.12
2022-11-05T04:34:11.025Z,80.35
2022-11-05T04:39:13.788Z,80.29
2022-11-05T04:44:16.899Z,80.95
2022-11-05T04:49:19.834Z,81.30
2022-11-05T04:54:22.644Z,81.09
2022-11-05T04:59:25.470Z,81.49
2022-11-05T05:04:28.460Z,81.50
2022-11-05T05:09:31.215Z,81.97
2022-11-05T05:14:34.589Z,81.98
2022-11-05T05:19:57.312Z,81.93
2022-11-05T05:25:00.111Z,82.18
2022-11-05T05:30:03.553Z,82.39
2022-11-05T05:35:06.941Z,82.77
2022-11-05T05:40:11.924Z,82.92
2022-11-05T05:45:14.703Z,83.39
2022-11-05T05:50:17.668Z,83.42
2022-11-05T05:55:21.755Z,83.65
2022-11-05T06:00:24.494Z,83.67
2022-11-05T06:05:27.304Z,83.82
2022-11-05T06:10:30.183Z,83.93
2022-11-05T06:15:35.902Z,83.99
2022-11-05T06:20:39.100Z,83.98
2022-11-05T06:25:41.894Z,84.42
2022-11-05T06:30:51.938Z,84.36
2022-11-05T06:35:54.875Z,84.08
2022-11-05T06:41:03.299Z,84.08
2022-11-05T06:46:10.178Z,84.15
2022-11-05T06:51:12.961Z,84.27
2022-11-05T06:56:15.775Z,84.18
2022-11-05T07:01:18.910Z,84.19
2022-11-05T07:06:22.012Z,83.94
2022-11-05T07:11:24.926Z,84.40
2022-11-05T07:16:27.749Z,84.34
2022-11-05T07:21:30.553Z,84.19
2022-11-05T07:26:34.774Z,84.29
2022-11-05T07:31:38.153Z,84.40
2022-11-05T07:36:41.048Z,84.37
2022-11-05T07:41:46.021Z,84.10
2022-11-05T07:46:50.142Z,84.32
2022-11-05T07:51:53.656Z,84.05
2022-11-05T07:56:56.445Z,83.86
2022-11-05T08:01:59.437Z,84.03
2022-11-05T08:07:02.566Z,84.24
2022-11-05T08:12:06.325Z,84.24
2022-11-05T08:17:09.147Z,83.86
2022-11-05T08:22:11.923Z,83.76
2022-11-05T08:27:14.790Z,83.94
2022-11-05T08:32:18.287Z,83.62
2022-11-05T08:37:21.035Z,83.88
2022-11-05T08:42:24.409Z,83.62
2022-11-05T08:47:27.329Z,83.90
2022-11-05T08:52:30.090Z,83.70
2022-11-05T08:57:33.955Z,83.62
2022-11-05T09:02:36.847Z,83.44
2022-11-05T09:07:39.630Z,83.59
2022-11-05T09:12:42.446Z,83.65
2022-11-05T09:17:45.317Z,83.38
2022-11-05T09:22:48.122Z,83.65
2022-11-05T09:27:51.019Z,83.39
2022-11-05T09:32:53.824Z,83.43
2022-11-05T09:38:00.764Z,83.07
2022-11-05T09:43:05.767Z,83.16
2022-11-05T09:48:12.521Z,83.34
2022-11-05T09:53:17.729Z,82.95
2022-11-05T09:58:59.924Z,82.71
2022-11-05T10:04:08.701Z,82.73
2022-11-05T10:09:45.307Z,82.91
2022-11-05T10:15:03.301Z,82.75
2022-11-05T10:20:37.676Z,82.60
2022-11-05T10:25:45.986Z,82.72
2022-11-05T10:30:52.843Z,82.94
2022-11-05T10:35:59.696Z,83.13
2022-11-05T10:41:14.762Z,82.93
2022-11-05T10:46:34.418Z,82.86
2022-11-05T10:51:37.833Z,83.20
2022-11-05T10:56:41.067Z,83.05
2022-11-05T11:01:44.038Z,82.89
2022-11-05T11:06:53.219Z,83.07
2022-11-05T11:12:07.359Z,83.15
2022-11-05T11:17:26.614Z,83.33
2022-11-05T11:22:29.799Z,83.32
2022-11-05T11:27:33.674Z,83.54
2022-11-05T11:32:38.838Z,83.48
2022-11-05T11:37:42.328Z,83.43
2022-11-05T11:42:48.145Z,83.43
2022-11-05T11:47:51.596Z,83.80
2022-11-05T11:52:54.413Z,83.93
2022-11-05T11:58:15.410Z,83.76
2022-11-05T12:03:51.747Z,83.92
2022-11-05T12:09:11.681Z,84.02
2022-11-05T12:14:26.941Z,84.05
2022-11-05T12:20:35.910Z,84.49
2022-11-05T12:26:06.768Z,85.15
2022-11-05T12:31:22.495Z,85.37
2022-11-05T12:37:07.890Z,85.67
2022-11-05T12:42:37.640Z,85.83
2022-11-05T12:48:17.319Z,86.25
2022-11-05T12:53:30.238Z,86.21
2022-11-05T12:58:37.501Z,86.69
2022-11-05T13:04:01.489Z,86.69
2022-11-05T13:09:17.889Z,86.69
2022-11-05T13:14:45.673Z,86.97
2022-11-05T13:20:16.056Z,87.21
2022-11-05T13:25:27.345Z,87.41
2022-11-05T13:30:52.516Z,87.53
2022-11-05T13:36:48.899Z,87.58
2022-11-05T13:42:25.799Z,87.74
2022-11-05T13:47:48.662Z,88.05
2022-11-05T13:53:10.341Z,88.07
2022-11-05T13:58:38.135Z,88.66
2022-11-05T14:03:47.499Z,88.92
2022-11-05T14:08:50.394Z,89.12
2022-11-05T14:14:00.993Z,89.52
2022-11-05T14:19:19.115Z,89.50
2022-11-05T14:24:21.953Z,89.45
2022-11-05T14:29:24.949Z,89.86
2022-11-05T14:35:19.455Z,90.27
2022-11-05T14:40:22.193Z,90.35
2022-11-05T14:45:39.005Z,90.47
2022-11-05T14:50:43.235Z,90.27
2022-11-05T14:55:46.019Z,90.62
2022-11-05T15:00:49.259Z,90.63
2022-11-05T15:05:52.415Z,90.83
2022-11-05T15:11:32.987Z,90.91
2022-11-05T15:16:52.464Z,91.09
2022-11-05T15:21:59.001Z,91.09
2022-11-05T15:28:14.083Z,91.35
2022-11-05T15:33:19.946Z,91.48
2022-11-05T15:38:28.311Z,91.42
2022-11-05T15:43:31.958Z,91.72
2022-11-05T15:48:35.024Z,91.95
2022-11-05T15:59:31.723Z,92.47
2022-11-05T16:04:34.938Z,91.69
2022-11-05T16:09:43.886Z,91.86
2022-11-05T16:14:58.439Z,91.82
2022-11-05T16:20:01.252Z,92.06
2022-11-05T16:25:29.037Z,92.11
2022-11-05T16:30:31.903Z,92.27
2022-11-05T16:35:34.718Z,92.56
2022-11-05T16:40:37.512Z,92.72
2022-11-05T16:45:41.657Z,92.29
2022-11-05T16:50:44.829Z,92.34
2022-11-05T16:55:47.740Z,92.40
2022-11-05T17:00:52.802Z,92.92
2022-11-05T17:05:55.662Z,92.77
2022-11-05T17:10:58.494Z,92.58
2022-11-05T17:16:02.093Z,92.63
2022-11-05T17:21:07.645Z,92.84
2022-11-05T17:26:12.389Z,93.29
2022-11-05T17:31:19.058Z,93.48
2022-11-05T17:36:22.062Z,93.55
2022-11-05T17:41:25.033Z,92.81
2022-11-05T17:46:27.893Z,92.82
2022-11-05T17:51:30.665Z,93.24
2022-11-05T17:56:40.281Z,93.45
2022-11-05T18:01:46.414Z,93.10
2022-11-05T18:06:49.439Z,93.57
2022-11-05T18:11:52.218Z,93.40
2022-11-05T18:17:00.206Z,93.85
2022-11-05T18:22:03.059Z,93.58
2022-11-05T18:27:05.878Z,93.48
2022-11-05T18:32:09.095Z,93.91
2022-11-05T18:37:11.896Z,94.11
2022-11-05T18:42:14.685Z,93.75
2022-11-05T18:47:17.435Z,93.65
2022-11-05T18:52:20.189Z,93.61
2022-11-05T18:57:22.984Z,93.94
2022-11-05T19:02:25.899Z,94.30
2022-11-05T19:07:29.935Z,94.42
2022-11-05T19:12:32.765Z,94.02
2022-11-05T19:17:35.735Z,94.35
2022-11-05T19:22:38.579Z,96.40
2022-11-05T19:27:42.759Z,98.46
2022-11-05T19:32:45.676Z,99.56
2022-11-05T19:37:50.352Z,99.81
2022-11-05T19:42:53.132Z,100.00
2022-11-05T19:47:55.910Z,100.00
2022-11-05T19:52:58.837Z,100.00
2022-11-05T19:58:01.606Z,100.00
2022-11-05T20:03:04.965Z,100.00
2022-11-05T20:08:07.794Z,100.00
2022-11-05T20:13:15.530Z,100.00
2022-11-05T20:18:21.518Z,100.00
2022-11-05T20:23:24.364Z,100.00
2022-11-05T20:28:27.761Z,100.00
2022-11-05T20:33:30.569Z,100.00
2022-11-05T20:38:33.782Z,100.00
2022-11-05T20:43:38.710Z,100.00
2022-11-05T20:48:43.299Z,100.00
2022-11-05T20:53:46.467Z,100.00
2022-11-05T20:58:49.690Z,100.00
2022-11-05T21:03:52.551Z,100.00
2022-11-05T21:08:55.428Z,100.00
2022-11-05T21:13:58.242Z,100.00
2022-11-05T21:19:01.054Z,100.00
2022-11-05T21:24:04.145Z,99.98
2022-11-05T21:29:07.873Z,100.00
2022-11-05T21:34:10.752Z,100.00
2022-11-05T21:39:14.020Z,99.94
2022-11-05T21:44:17.083Z,100.00
2022-11-05T21:49:21.499Z,99.75
2022-11-05T21:54:43.044Z,99.78
2022-11-05T21:59:49.173Z,99.78
2022-11-05T22:04:53.533Z,99.91
2022-11-05T22:09:56.474Z,99.69
2022-11-05T22:14:59.760Z,99.63
2022-11-05T22:20:03.075Z,99.57
2022-11-05T22:25:06.232Z,99.32
2022-11-05T22:30:09.792Z,99.34
2022-11-05T22:35:12.600Z,99.06
2022-11-05T22:40:15.434Z,99.21
2022-11-05T22:45:18.528Z,98.87
2022-11-05T22:50:21.389Z,99.38
2022-11-05T22:55:24.240Z,99.23
2022-11-05T23:00:36.101Z,99.47
2022-11-05T23:05:38.874Z,99.58
2022-11-05T23:11:00.531Z,99.24
2022-11-05T23:16:22.217Z,99.26
2022-11-05T23:21:43.890Z,99.06
2022-11-05T23:26:52.658Z,99.11
2022-11-05T23:32:14.155Z,98.94
2022-11-05T23:37:35.477Z,99.00
2022-11-05T23:42:57.362Z,99.16
2022-11-05T23:48:17.916Z,99.22
2022-11-05T23:53:20.774Z,99.66
2022-11-05T23:58:23.538Z,99.30
